createdAt,value
2019-05-13T00:00:06.572Z,9.05
2019-05-13T00:02:36.551Z,9.03
2019-05-13T00:05:07.095Z,9.10
2019-05-13T00:07:37.058Z,9.10
2019-05-13T00:10:07.515Z,9.05
2019-05-13T00:12:37.449Z,9.30
2019-05-13T00:15:07.391Z,9.11
2019-05-13T00:17:37.272Z,9.22
2019-05-13T00:20:07.333Z,9.32
2019-05-13T00:22:37.240Z,9.42
2019-05-13T00:25:07.865Z,9.28
2019-05-13T00:27:37.693Z,9.47
2019-05-13T00:30:09.218Z,9.66
2019-05-13T00:32:39.101Z,9.45
2019-05-13T00:35:09.222Z,9.64
2019-05-13T00:37:40.187Z,9.45
2019-05-13T00:40:10.187Z,8.87
2019-05-13T00:42:40.109Z,9.08
2019-05-13T00:45:10.431Z,9.30
2019-05-13T00:47:40.278Z,9.37
2019-05-13T00:50:10.289Z,9.40
2019-05-13T00:52:40.173Z,9.01
2019-05-13T00:55:10.324Z,8.53
2019-05-13T00:57:43.624Z,8.66
2019-05-13T01:00:14.264Z,8.63
2019-05-13T01:02:44.836Z,9.05
2019-05-13T01:05:14.952Z,9.31
2019-05-13T01:07:44.909Z,9.31
2019-05-13T01:10:14.996Z,9.32
2019-05-13T01:12:44.886Z,9.34
2019-05-13T01:15:14.979Z,9.43
2019-05-13T01:17:44.983Z,9.48
2019-05-13T01:20:16.096Z,9.48
2019-05-13T01:22:45.944Z,9.28
2019-05-13T01:25:15.946Z,9.06
2019-05-13T01:27:45.870Z,8.83
2019-05-13T01:30:16.343Z,9.05
2019-05-13T01:32:46.188Z,9.30
2019-05-13T01:35:16.241Z,9.50
2019-05-13T01:37:46.354Z,9.72
2019-05-13T01:40:16.675Z,9.70
2019-05-13T01:42:46.651Z,9.27
2019-05-13T01:45:17.327Z,9.48
2019-05-13T01:47:47.330Z,9.54
2019-05-13T01:50:17.298Z,9.45
2019-05-13T01:52:47.229Z,9.45
2019-05-13T01:55:17.235Z,8.94
2019-05-13T01:57:47.229Z,8.67
2019-05-13T02:00:17.308Z,8.84
2019-05-13T02:02:47.360Z,9.00
2019-05-13T02:05:17.444Z,8.98
2019-05-13T02:07:58.930Z,8.97
2019-05-13T02:10:39.328Z,9.02
2019-05-13T02:13:09.536Z,9.11
2019-05-13T02:15:39.531Z,8.76
2019-05-13T02:18:09.413Z,8.58
2019-05-13T02:20:39.325Z,8.39
2019-05-13T02:23:10.878Z,7.83
2019-05-13T02:25:43.452Z,7.60
2019-05-13T02:28:13.875Z,7.55
2019-05-13T02:30:45.514Z,7.90
2019-05-13T02:33:15.680Z,7.91
2019-05-13T02:35:45.587Z,7.82
2019-05-13T02:38:23.973Z,8.11
2019-05-13T02:40:47.394Z,8.18
2019-05-13T02:43:17.376Z,8.50
2019-05-13T02:45:48.808Z,8.76
2019-05-13T02:48:18.782Z,8.85
2019-05-13T02:50:48.617Z,9.23
2019-05-13T02:53:18.558Z,9.20
2019-05-13T02:55:48.566Z,8.53
2019-05-13T02:58:18.560Z,8.06
2019-05-13T03:00:53.140Z,7.75
2019-05-13T03:03:23.138Z,7.25
2019-05-13T03:05:52.727Z,7.78
2019-05-13T03:08:39.717Z,8.24
2019-05-13T03:10:54.808Z,8.52
2019-05-13T03:13:24.759Z,8.65
2019-05-13T03:16:02.981Z,9.01
2019-05-13T03:18:33.676Z,9.20
2019-05-13T03:21:03.872Z,9.24
2019-05-13T03:23:34.850Z,9.11
2019-05-13T03:26:04.806Z,9.07
2019-05-13T03:28:34.798Z,9.21
2019-05-13T03:31:07.309Z,9.10
2019-05-13T03:33:37.736Z,9.20
2019-05-13T03:36:08.645Z,9.34
2019-05-13T03:38:59.728Z,9.18
2019-05-13T03:41:14.209Z,8.97
2019-05-13T03:43:44.401Z,9.00
2019-05-13T03:46:14.591Z,9.18
2019-05-13T03:48:46.160Z,9.19
2019-05-13T03:51:16.434Z,9.33
2019-05-13T03:53:46.507Z,9.24
2019-05-13T03:56:16.982Z,8.30
2019-05-13T03:58:47.170Z,8.80
2019-05-13T04:01:17.150Z,9.08
2019-05-13T04:03:47.290Z,9.16
2019-05-13T04:06:18.254Z,9.12
2019-05-13T04:08:48.397Z,9.15
2019-05-13T04:11:18.615Z,9.42
2019-05-13T04:13:48.552Z,9.35
2019-05-13T04:16:18.447Z,9.30
2019-05-13T04:18:48.407Z,9.45
2019-05-13T04:21:18.540Z,9.51
2019-05-13T04:23:48.526Z,9.53
2019-05-13T04:26:18.552Z,9.33
2019-05-13T04:28:52.398Z,9.21
2019-05-13T04:31:22.776Z,9.00
2019-05-13T04:33:53.375Z,8.85
2019-05-13T04:36:24.015Z,8.96
2019-05-13T04:38:54.169Z,9.03
2019-05-13T04:41:24.140Z,9.30
2019-05-13T04:43:54.519Z,9.42
2019-05-13T04:46:24.616Z,9.51
2019-05-13T04:48:54.592Z,9.49
2019-05-13T04:51:24.583Z,9.39
2019-05-13T04:53:57.318Z,9.14
2019-05-13T04:56:26.226Z,9.35
2019-05-13T04:58:56.682Z,9.50
2019-05-13T05:01:59.546Z,9.68
2019-05-13T05:04:52.244Z,9.86
2019-05-13T05:08:04.326Z,10.05
2019-05-13T05:11:02.162Z,10.08
2019-05-13T05:17:16.213Z,10.04
2019-05-13T05:20:17.701Z,10.21
2019-05-13T05:23:15.628Z,10.11
2019-05-13T05:26:31.375Z,9.87
2019-05-13T05:29:17.051Z,9.68
2019-05-13T05:32:31.866Z,9.60
2019-05-13T05:35:25.569Z,9.61
2019-05-13T05:38:43.269Z,9.95
2019-05-13T05:41:17.768Z,10.17
2019-05-13T05:43:52.202Z,10.19
2019-05-13T05:46:25.261Z,10.61
2019-05-13T05:48:58.394Z,10.87
2019-05-13T05:51:31.488Z,10.71
2019-05-13T05:54:03.634Z,10.62
2019-05-13T05:56:33.916Z,10.51
2019-05-13T05:59:04.268Z,10.91
2019-05-13T06:01:37.347Z,11.23
2019-05-13T06:04:06.129Z,11.35
2019-05-13T06:06:37.212Z,11.43
2019-05-13T06:09:07.866Z,11.83
2019-05-13T06:11:37.875Z,12.07
2019-05-13T06:14:07.848Z,12.07
2019-05-13T06:16:37.808Z,11.99
2019-05-13T06:19:07.996Z,12.02
2019-05-13T06:21:38.217Z,11.71
2019-05-13T06:24:08.209Z,11.48
2019-05-13T06:26:41.774Z,11.62
2019-05-13T06:29:11.622Z,11.95
2019-05-13T06:31:42.077Z,11.80
2019-05-13T06:34:12.721Z,11.98
2019-05-13T06:36:42.781Z,11.63
2019-05-13T06:39:12.862Z,11.59
2019-05-13T06:41:42.848Z,12.07
2019-05-13T06:44:12.830Z,12.23
2019-05-13T06:46:42.865Z,12.40
2019-05-13T06:49:12.958Z,12.75
2019-05-13T06:51:42.878Z,12.75
2019-05-13T06:54:12.947Z,12.23
2019-05-13T06:56:43.006Z,12.00
2019-05-13T06:59:12.889Z,11.86
2019-05-13T07:01:42.968Z,11.87
2019-05-13T07:04:12.949Z,11.94
2019-05-13T07:06:42.752Z,12.16
2019-05-13T07:09:12.639Z,12.53
2019-05-13T07:11:42.585Z,12.72
2019-05-13T07:14:12.970Z,12.77
2019-05-13T07:16:43.580Z,12.59
2019-05-13T07:19:13.427Z,12.70
2019-05-13T07:21:43.343Z,12.79
2019-05-13T07:24:13.356Z,12.82
2019-05-13T07:26:43.236Z,12.68
2019-05-13T07:29:13.695Z,12.69
2019-05-13T07:31:44.234Z,13.04
2019-05-13T07:34:14.268Z,12.80
2019-05-13T07:36:44.682Z,12.96
2019-05-13T07:39:14.820Z,13.28
2019-05-13T07:41:44.717Z,13.16
2019-05-13T07:44:14.527Z,13.40
2019-05-13T07:46:44.583Z,13.74
2019-05-13T07:49:14.428Z,13.51
2019-05-13T07:51:44.391Z,13.61
2019-05-13T07:54:14.409Z,13.71
2019-05-13T07:56:44.233Z,14.09
2019-05-13T07:59:14.199Z,13.88
2019-05-13T08:01:44.157Z,14.07
2019-05-13T08:04:22.538Z,13.59
2019-05-13T08:06:45.586Z,13.69
2019-05-13T08:09:17.533Z,13.65
2019-05-13T08:12:04.352Z,13.69
2019-05-13T08:14:21.625Z,13.89
2019-05-13T08:16:51.778Z,13.79
2019-05-13T08:19:21.998Z,13.76
2019-05-13T08:21:51.888Z,13.41
2019-05-13T08:24:22.709Z,13.35
2019-05-13T08:26:53.229Z,13.31
2019-05-13T08:29:23.448Z,13.71
2019-05-13T08:31:53.428Z,14.00
2019-05-13T08:34:24.693Z,13.85
2019-05-13T08:36:54.691Z,14.10
2019-05-13T08:39:26.873Z,14.01
2019-05-13T08:42:10.486Z,13.68
2019-05-13T08:44:28.020Z,13.90
2019-05-13T08:47:02.599Z,14.49
2019-05-13T08:49:32.521Z,14.67
2019-05-13T08:52:02.821Z,14.55
2019-05-13T08:54:33.227Z,14.46
2019-05-13T08:57:03.441Z,14.68
2019-05-13T08:59:33.424Z,14.58
2019-05-13T09:02:03.658Z,14.77
2019-05-13T09:04:33.675Z,15.02
2019-05-13T09:07:03.999Z,15.20
2019-05-13T09:09:34.024Z,15.20
2019-05-13T09:12:04.065Z,15.07
2019-05-13T09:14:33.994Z,14.55
2019-05-13T09:17:04.002Z,15.32
2019-05-13T09:19:33.988Z,15.72
2019-05-13T09:22:03.998Z,16.08
2019-05-13T09:24:37.840Z,15.53
2019-05-13T09:27:05.665Z,15.73
2019-05-13T09:29:35.679Z,15.71
2019-05-13T09:32:05.713Z,15.71
2019-05-13T09:34:35.754Z,15.59
2019-05-13T09:37:05.636Z,15.85
2019-05-13T09:39:35.667Z,16.27
2019-05-13T09:42:05.811Z,15.81
2019-05-13T09:44:35.882Z,15.57
2019-05-13T09:47:05.871Z,15.37
2019-05-13T09:49:36.322Z,15.00
2019-05-13T09:52:06.488Z,14.71
2019-05-13T09:54:36.393Z,14.45
2019-05-13T09:57:06.370Z,13.83
2019-05-13T09:59:36.199Z,13.69
2019-05-13T10:02:06.193Z,13.29
2019-05-13T10:04:36.024Z,13.34
2019-05-13T10:07:05.950Z,13.33
2019-05-13T10:09:35.953Z,13.59
2019-05-13T10:12:06.363Z,13.75
2019-05-13T10:14:36.369Z,14.45
2019-05-13T10:17:06.789Z,14.82
2019-05-13T10:19:36.876Z,14.52
2019-05-13T10:22:07.168Z,14.66
2019-05-13T10:24:37.196Z,14.63
2019-05-13T10:27:07.243Z,14.43
2019-05-13T10:29:37.545Z,14.46
2019-05-13T10:32:07.643Z,14.39
2019-05-13T10:34:38.107Z,14.13
2019-05-13T10:37:08.111Z,14.13
2019-05-13T10:39:38.095Z,14.08
2019-05-13T10:42:08.012Z,14.06
2019-05-13T10:44:37.927Z,13.82
2019-05-13T10:47:07.848Z,13.51
2019-05-13T10:49:37.751Z,13.38
2019-05-13T10:52:07.732Z,13.24
2019-05-13T10:54:37.628Z,13.22
2019-05-13T10:57:07.630Z,13.16
2019-05-13T10:59:37.666Z,13.42
2019-05-13T11:02:07.686Z,13.89
2019-05-13T11:04:37.501Z,14.20
2019-05-13T11:07:08.384Z,14.21
2019-05-13T11:09:38.301Z,14.08
2019-05-13T11:12:08.894Z,13.87
2019-05-13T11:14:38.894Z,13.56
2019-05-13T11:17:13.094Z,13.45
2019-05-13T11:19:42.208Z,13.59
2019-05-13T11:22:12.472Z,13.76
2019-05-13T11:24:43.311Z,13.96
2019-05-13T11:27:13.280Z,14.23
2019-05-13T11:29:43.159Z,14.68
2019-05-13T11:32:13.481Z,15.24
2019-05-13T11:34:43.584Z,15.33
2019-05-13T11:37:13.571Z,15.88
2019-05-13T11:39:43.492Z,16.52
2019-05-13T11:42:13.921Z,16.82
2019-05-13T11:44:44.896Z,17.07
2019-05-13T11:47:15.983Z,17.33
2019-05-13T11:49:45.982Z,17.46
2019-05-13T11:52:15.952Z,17.43
2019-05-13T11:54:45.871Z,16.63
2019-05-13T11:57:15.777Z,15.81
2019-05-13T11:59:45.803Z,16.91
2019-05-13T12:02:15.798Z,17.36
2019-05-13T12:04:45.795Z,16.77
2019-05-13T12:07:15.818Z,16.29
2019-05-13T12:09:45.747Z,15.93
2019-05-13T12:12:15.714Z,16.01
2019-05-13T12:15:16.199Z,15.67
2019-05-13T12:17:17.420Z,15.33
2019-05-13T12:19:47.268Z,15.20
2019-05-13T12:22:17.171Z,15.90
2019-05-13T12:24:47.086Z,16.50
2019-05-13T12:27:18.390Z,17.40
2019-05-13T12:29:48.290Z,18.45
2019-05-13T12:32:18.311Z,17.33
2019-05-13T12:34:48.291Z,16.65
2019-05-13T12:37:18.285Z,16.51
2019-05-13T12:39:48.188Z,15.98
2019-05-13T12:42:18.422Z,16.00
2019-05-13T12:45:01.872Z,15.79
2019-05-13T12:47:22.142Z,15.74
2019-05-13T12:49:51.460Z,15.47
2019-05-13T12:52:22.827Z,15.47
2019-05-13T12:54:53.230Z,15.40
2019-05-13T12:57:23.510Z,15.50
2019-05-13T12:59:53.420Z,15.66
2019-05-13T13:02:23.333Z,17.00
2019-05-13T13:05:10.683Z,16.86
2019-05-13T13:07:25.972Z,16.22
2019-05-13T13:09:56.588Z,15.59
2019-05-13T13:12:34.558Z,15.23
2019-05-13T13:14:58.135Z,14.79
2019-05-13T13:17:27.994Z,14.66
2019-05-13T13:20:05.939Z,14.62
2019-05-13T13:22:32.056Z,14.57
2019-05-13T13:25:04.960Z,14.84
2019-05-13T13:28:02.146Z,15.05
2019-05-13T13:30:08.413Z,15.18
2019-05-13T13:32:37.416Z,15.38
2019-05-13T13:35:07.817Z,14.93
2019-05-13T13:37:37.743Z,14.99
2019-05-13T13:40:08.252Z,14.76
2019-05-13T13:42:38.171Z,14.74
2019-05-13T13:45:08.464Z,14.55
2019-05-13T13:47:38.394Z,14.73
2019-05-13T13:50:08.696Z,14.62
2019-05-13T13:52:38.663Z,14.84
2019-05-13T13:55:09.417Z,15.15
2019-05-13T13:57:43.670Z,15.66
2019-05-13T14:00:31.745Z,16.01
2019-05-13T14:02:43.287Z,16.39
2019-05-13T14:05:13.297Z,16.36
2019-05-13T14:07:43.123Z,16.52
2019-05-13T14:10:13.306Z,16.48
2019-05-13T14:12:43.241Z,16.29
2019-05-13T14:15:13.932Z,16.03
2019-05-13T14:17:43.931Z,16.42
2019-05-13T14:20:14.408Z,16.25
2019-05-13T14:22:44.323Z,16.33
2019-05-13T14:25:14.309Z,15.94
2019-05-13T14:27:44.164Z,15.68
2019-05-13T14:30:14.572Z,15.20
2019-05-13T14:32:44.503Z,15.25
2019-05-13T14:35:14.581Z,14.99
2019-05-13T14:37:44.425Z,15.20
2019-05-13T14:40:14.824Z,16.28
2019-05-13T14:42:44.944Z,17.58
2019-05-13T14:45:15.131Z,18.23
2019-05-13T14:47:45.343Z,18.54
2019-05-13T14:50:16.147Z,17.24
2019-05-13T14:52:46.068Z,16.56
2019-05-13T14:55:16.068Z,16.34
2019-05-13T14:57:46.089Z,16.15
2019-05-13T15:00:16.286Z,16.05
2019-05-13T15:02:46.384Z,15.60
2019-05-13T15:05:16.393Z,15.28
2019-05-13T15:07:46.353Z,15.60
2019-05-13T15:10:16.657Z,16.55
2019-05-13T15:12:46.625Z,17.12
2019-05-13T15:15:16.878Z,17.55
2019-05-13T15:17:46.866Z,18.09
2019-05-13T15:20:17.033Z,18.74
2019-05-13T15:22:46.987Z,18.95
2019-05-13T15:25:16.891Z,19.05
2019-05-13T15:27:46.793Z,18.13
2019-05-13T15:30:18.206Z,16.98
2019-05-13T15:32:48.342Z,16.21
2019-05-13T15:35:18.333Z,15.84
2019-05-13T15:37:48.251Z,16.09
2019-05-13T15:40:18.255Z,17.04
2019-05-13T15:42:48.284Z,17.85
2019-05-13T15:45:18.312Z,18.57
2019-05-13T15:47:48.429Z,18.78
2019-05-13T15:50:18.501Z,17.98
2019-05-13T15:52:48.542Z,16.78
2019-05-13T15:55:18.601Z,15.83
2019-05-13T15:57:48.632Z,15.32
2019-05-13T16:00:21.791Z,15.72
2019-05-13T16:02:52.236Z,16.51
2019-05-13T16:05:22.314Z,16.88
2019-05-13T16:07:52.488Z,17.10
2019-05-13T16:10:22.557Z,17.32
2019-05-13T16:12:52.506Z,17.05
2019-05-13T16:15:22.487Z,16.72
2019-05-13T16:17:52.398Z,16.62
2019-05-13T16:20:22.297Z,16.96
2019-05-13T16:22:52.820Z,17.35
2019-05-13T16:25:22.922Z,17.76
2019-05-13T16:27:52.886Z,17.69
2019-05-13T16:30:23.516Z,17.96
2019-05-13T16:32:53.430Z,17.29
2019-05-13T16:38:08.222Z,16.72
2019-05-13T16:40:38.422Z,16.18
2019-05-13T16:43:08.397Z,16.30
2019-05-13T16:45:38.398Z,16.21
2019-05-13T16:48:08.742Z,15.87
2019-05-13T16:50:38.728Z,15.41
2019-05-13T16:53:08.637Z,15.17
2019-05-13T16:55:41.538Z,15.68
2019-05-13T16:58:12.581Z,16.06
2019-05-13T17:00:43.725Z,16.52
2019-05-13T17:03:13.783Z,16.50
2019-05-13T17:05:44.545Z,16.42
2019-05-13T17:08:14.748Z,16.69
2019-05-13T17:10:44.576Z,16.80
2019-05-13T17:13:14.658Z,16.99
2019-05-13T17:15:44.747Z,17.39
2019-05-13T17:18:15.451Z,17.77
2019-05-13T17:20:45.552Z,17.93
2019-05-13T17:23:16.520Z,17.63
2019-05-13T17:25:46.981Z,17.01
2019-05-13T17:28:18.095Z,16.72
2019-05-13T17:30:49.176Z,16.53
2019-05-13T17:33:22.856Z,16.24
2019-05-13T17:35:50.914Z,15.99
2019-05-13T17:38:21.750Z,15.78
2019-05-13T17:40:53.121Z,15.57
2019-05-13T17:43:23.390Z,15.46
2019-05-13T17:45:54.235Z,15.28
2019-05-13T17:48:29.111Z,15.01
2019-05-13T17:50:56.970Z,14.88
2019-05-13T17:53:26.990Z,14.75
2019-05-13T17:55:56.924Z,14.62
2019-05-13T17:58:26.907Z,14.54
2019-05-13T18:00:56.883Z,14.46
2019-05-13T18:03:26.929Z,14.33
2019-05-13T18:05:56.919Z,14.15
2019-05-13T18:08:26.851Z,14.06
2019-05-13T18:10:56.795Z,13.91
2019-05-13T18:13:26.875Z,14.06
2019-05-13T18:15:56.875Z,14.19
2019-05-13T18:18:38.973Z,13.89
2019-05-13T18:20:58.453Z,13.68
2019-05-13T18:23:28.334Z,13.65
2019-05-13T18:26:01.746Z,13.55
2019-05-13T18:28:31.896Z,13.35
2019-05-13T18:31:02.009Z,13.14
2019-05-13T18:33:32.243Z,12.99
2019-05-13T18:36:02.219Z,12.89
2019-05-13T18:38:32.411Z,12.76
2019-05-13T18:41:02.611Z,12.75
2019-05-13T18:43:32.594Z,12.72
2019-05-13T18:46:04.092Z,12.70
2019-05-13T18:48:34.109Z,12.70
2019-05-13T18:51:04.140Z,12.54
2019-05-13T18:53:34.123Z,12.39
2019-05-13T18:56:04.338Z,12.27
2019-05-13T18:58:34.278Z,12.23
2019-05-13T19:01:04.324Z,12.23
2019-05-13T19:03:34.189Z,12.25
2019-05-13T19:06:04.233Z,12.17
2019-05-13T19:08:34.151Z,12.07
2019-05-13T19:11:04.059Z,12.06
2019-05-13T19:13:34.087Z,12.11
2019-05-13T19:16:04.195Z,12.15
2019-05-13T19:18:34.261Z,12.10
2019-05-13T19:21:04.177Z,11.98
2019-05-13T19:23:34.160Z,11.85
2019-05-13T19:26:04.005Z,11.77
2019-05-13T19:28:33.931Z,11.70
2019-05-13T19:31:03.916Z,11.55
2019-05-13T19:33:33.755Z,11.56
2019-05-13T19:36:03.685Z,11.48
2019-05-13T19:38:33.679Z,11.49
2019-05-13T19:41:03.928Z,11.40
2019-05-13T19:43:33.816Z,11.42
2019-05-13T19:46:03.792Z,11.44
2019-05-13T19:48:33.779Z,11.31
2019-05-13T19:51:03.833Z,11.34
2019-05-13T19:53:33.753Z,11.31
2019-05-13T19:56:03.717Z,11.29
2019-05-13T19:58:33.677Z,11.15
2019-05-13T20:01:03.622Z,11.16
2019-05-13T20:03:33.600Z,11.15
2019-05-13T20:06:03.506Z,11.04
2019-05-13T20:08:33.507Z,10.92
2019-05-13T20:11:03.405Z,10.83
2019-05-13T20:13:35.143Z,10.74
2019-05-13T20:16:05.498Z,10.67
2019-05-13T20:18:35.658Z,10.68
2019-05-13T20:21:05.787Z,10.55
2019-05-13T20:23:35.753Z,10.57
2019-05-13T20:26:05.673Z,10.43
2019-05-13T20:28:35.514Z,10.46
2019-05-13T20:31:05.495Z,10.45
2019-05-13T20:33:39.605Z,10.41
2019-05-13T20:36:07.077Z,10.31
2019-05-13T20:38:38.131Z,10.11
2019-05-13T20:41:08.602Z,10.04
2019-05-13T20:43:38.563Z,9.91
2019-05-13T20:46:08.396Z,9.90
2019-05-13T20:48:38.350Z,10.02
2019-05-13T20:51:08.399Z,9.95
2019-05-13T20:53:38.326Z,9.43
2019-05-13T20:56:08.440Z,9.10
2019-05-13T20:58:38.586Z,9.03
2019-05-13T21:01:08.559Z,9.00
2019-05-13T21:03:38.382Z,9.28
2019-05-13T21:06:08.215Z,9.39
2019-05-13T21:08:38.138Z,9.51
2019-05-13T21:11:07.964Z,9.65
2019-05-13T21:13:38.055Z,9.75
2019-05-13T21:16:08.094Z,9.99
2019-05-13T21:18:38.275Z,10.08
2019-05-13T21:21:08.313Z,10.11
2019-05-13T21:23:38.154Z,10.31
2019-05-13T21:26:08.072Z,10.42
2019-05-13T21:28:37.929Z,10.50
2019-05-13T21:31:07.832Z,10.61
2019-05-13T21:33:37.817Z,10.55
2019-05-13T21:36:07.746Z,10.55
2019-05-13T21:38:38.752Z,10.58
2019-05-13T21:41:28.528Z,10.57
2019-05-13T21:43:58.439Z,10.57
2019-05-13T21:46:28.443Z,10.49
2019-05-13T21:49:01.070Z,10.50
2019-05-13T21:51:31.532Z,10.39
2019-05-13T21:54:01.633Z,10.30
2019-05-13T21:56:31.986Z,10.21
2019-05-13T21:59:02.034Z,10.23
2019-05-13T22:01:32.011Z,10.18
2019-05-13T22:04:01.927Z,10.11
2019-05-13T22:06:32.345Z,10.15
2019-05-13T22:09:02.401Z,10.11
2019-05-13T22:11:35.173Z,9.98
2019-05-13T22:14:05.266Z,9.83
2019-05-13T22:16:35.227Z,9.83
2019-05-13T22:19:05.269Z,9.76
2019-05-13T22:21:35.192Z,9.72
2019-05-13T22:24:05.216Z,9.65
2019-05-13T22:26:35.180Z,9.57
2019-05-13T22:29:05.277Z,9.49
2019-05-13T22:31:35.093Z,9.45
2019-05-13T22:34:05.165Z,9.48
2019-05-13T22:36:34.979Z,9.49
2019-05-13T22:39:06.667Z,9.43
2019-05-13T22:41:36.840Z,9.76
2019-05-13T22:44:07.820Z,10.25
2019-05-13T22:46:37.846Z,10.39
2019-05-13T22:49:07.990Z,10.73
2019-05-13T22:51:37.893Z,10.61
2019-05-13T22:54:07.882Z,10.60
2019-05-13T22:56:37.724Z,10.32
2019-05-13T22:59:07.741Z,10.19
2019-05-13T23:01:37.565Z,10.05
2019-05-13T23:04:07.733Z,9.96
2019-05-13T23:06:37.695Z,9.86
2019-05-13T23:09:07.680Z,9.97
2019-05-13T23:11:37.617Z,9.97
2019-05-13T23:14:10.918Z,9.89
2019-05-13T23:16:39.271Z,9.88
2019-05-13T23:19:11.102Z,9.92
2019-05-13T23:21:41.810Z,10.08
2019-05-13T23:24:11.952Z,10.08
2019-05-13T23:26:42.375Z,9.90
2019-05-13T23:29:12.317Z,9.65
2019-05-13T23:31:42.192Z,9.41
2019-05-13T23:34:12.231Z,9.30
2019-05-13T23:36:42.433Z,9.15
2019-05-13T23:39:12.523Z,9.07
2019-05-13T23:41:42.486Z,9.22
2019-05-13T23:44:23.654Z,9.14
2019-05-13T23:46:44.047Z,9.01
2019-05-13T23:49:13.949Z,8.81
2019-05-13T23:51:45.218Z,8.51
2019-05-13T23:54:15.136Z,8.32
2019-05-13T23:56:45.126Z,8.09
2019-05-13T23:59:34.179Z,7.95
